DM7LA-WX Weather Reports


Display with metric or nautical units.
time (UTC)temp
F
wind
direction
speed
MPH
gust
MPH
rain 1hr
in
rain 24hr
in
rain mn
in
humidity
%
barometer
mb
20230208095801 34 135 0.0 0.0 0.00 0.44 0.00 89 1034.4
20230208085802 32 180 0.0 0.0 0.00 0.44 0.00 96 1034.0
20230208075801 28 157 0.0 0.0 0.00 0.44 0.00 97 1034.7
20230208065801 28 270 0.0 0.0 0.00 0.44 0.00 97 1034.7
20230208055802 28 135 0.0 0.0 0.00 0.44 0.00 97 1034.7
20230208045802 28 247 0.0 0.0 0.00 0.44 0.00 97 1035.0
20230208035802 29 180 0.0 0.0 0.00 0.44 0.00 96 1035.0
20230208025801 29 247 0.0 0.0 0.00 0.44 0.00 96 1034.9
20230208015801 30 247 0.0 0.0 0.00 0.44 0.00 96 1035.6
20230208005801 30 247 0.0 0.0 0.00 0.44 0.00 96 1035.5
20230207235802 30 247 0.0 0.0 0.00 0.44 0.01 95 1035.6
20230207225801 30 247 0.0 0.0 0.00 0.44 0.01 95 1035.9
20230207215802 29 180 0.0 0.0 0.00 0.44 0.01 94 1035.9
20230207205801 29 225 0.0 0.0 0.00 0.44 0.01 93 1035.9
20230207195801 30 247 0.0 0.0 0.00 0.44 0.01 91 1036.1
20230207185801 32 292 0.0 0.0 0.00 0.44 0.01 89 1035.9
20230207175801 33 202 0.0 0.0 0.00 0.44 0.01 87 1035.6
20230207165801 35 135 0.0 0.0 0.00 0.44 0.01 82 1035.6
20230207155802 37 157 1.0 1.0 0.00 0.44 0.01 77 1035.2
20230207145801 39 202 0.0 0.0 0.00 0.44 0.01 74 1035.7
20230207135802 39 247 2.0 2.0 0.00 0.44 0.01 74 1036.1
20230207125802 38 225 3.0 3.0 0.01 0.44 0.01 77 1036.1
20230207115801 36 270 2.0 2.0 0.00 0.61 0.00 81 1036.4
20230207105801 34 202 2.0 2.0 0.00 0.61 0.00 89 1036.6